sensor_id;sensor_type;location;lat;lon;timestamp;pressure;altitude;pressure_sealevel;temperature;humidity
14273;BME280;7220;49.450;11.052;2023-02-19T00:03:34;98528.06;;;9.76;100.00
14273;BME280;7220;49.450;11.052;2023-02-19T00:07:34;98532.47;;;9.75;100.00
14273;BME280;7220;49.450;11.052;2023-02-19T00:11:35;98522.59;;;9.79;100.00
14273;BME280;7220;49.450;11.052;2023-02-19T00:15:36;98516.22;;;9.83;100.00
14273;BME280;7220;49.450;11.052;2023-02-19T00:19:36;98523.09;;;9.47;100.00
14273;BME280;7220;49.450;11.052;2023-02-19T00:23:37;98531.72;;;9.53;100.00
14273;BME280;7220;49.450;11.052;2023-02-19T00:27:37;98517.34;;;9.17;100.00
14273;BME280;7220;49.450;11.052;2023-02-19T00:31:37;98504.50;;;9.28;100.00
14273;BME280;7220;49.450;11.052;2023-02-19T00:35:39;98513.63;;;9.42;100.00
14273;BME280;7220;49.450;11.052;2023-02-19T00:39:39;98501.84;;;9.28;100.00
14273;BME280;7220;49.450;11.052;2023-02-19T00:43:39;98514.28;;;9.26;100.00
14273;BME280;7220;49.450;11.052;2023-02-19T00:47:40;98498.22;;;9.29;100.00
14273;BME280;7220;49.450;11.052;2023-02-19T00:51:40;98506.06;;;9.32;100.00
14273;BME280;7220;49.450;11.052;2023-02-19T00:55:40;98497.16;;;8.92;100.00
14273;BME280;7220;49.450;11.052;2023-02-19T00:59:40;98499.63;;;8.76;100.00
14273;BME280;7220;49.450;11.052;2023-02-19T01:03:41;98489.47;;;8.86;100.00
14273;BME280;7220;49.450;11.052;2023-02-19T01:07:41;98489.44;;;8.65;100.00
14273;BME280;7220;49.450;11.052;2023-02-19T01:11:42;98472.81;;;8.62;100.00
14273;BME280;7220;49.450;11.052;2023-02-19T01:15:43;98460.97;;;8.71;100.00
14273;BME280;7220;49.450;11.052;2023-02-19T01:19:43;98454.50;;;8.78;100.00
14273;BME280;7220;49.450;11.052;2023-02-19T01:23:44;98462.44;;;8.78;100.00
14273;BME280;7220;49.450;11.052;2023-02-19T01:27:45;98468.41;;;8.83;100.00
14273;BME280;7220;49.450;11.052;2023-02-19T01:31:45;98475.97;;;8.72;100.00
14273;BME280;7220;49.450;11.052;2023-02-19T01:35:45;98445.63;;;8.79;100.00
14273;BME280;7220;49.450;11.052;2023-02-19T01:39:46;98427.00;;;8.80;100.00
14273;BME280;7220;49.450;11.052;2023-02-19T01:48:11;98424.69;;;8.73;100.00
14273;BME280;7220;49.450;11.052;2023-02-19T01:52:18;98430.50;;;8.60;100.00
14273;BME280;7220;49.450;11.052;2023-02-19T01:56:22;98421.34;;;8.45;100.00
14273;BME280;7220;49.450;11.052;2023-02-19T02:00:24;98395.50;;;8.52;100.00
14273;BME280;7220;49.450;11.052;2023-02-19T02:04:25;98422.28;;;8.66;100.00
14273;BME280;7220;49.450;11.052;2023-02-19T02:08:27;98403.06;;;8.61;100.00
14273;BME280;7220;49.450;11.052;2023-02-19T02:12:47;98422.81;;;8.54;100.00
14273;BME280;7220;49.450;11.052;2023-02-19T02:17:09;98421.63;;;8.61;100.00
14273;BME280;7220;49.450;11.052;2023-02-19T02:21:38;98415.22;;;8.67;100.00
14273;BME280;7220;49.450;11.052;2023-02-19T02:25:51;98410.94;;;8.63;100.00
14273;BME280;7220;49.450;11.052;2023-02-19T02:34:33;98405.00;;;8.78;100.00
14273;BME280;7220;49.450;11.052;2023-02-19T02:38:38;98395.06;;;8.83;100.00
14273;BME280;7220;49.450;11.052;2023-02-19T02:42:39;98395.41;;;8.76;100.00
14273;BME280;7220;49.450;11.052;2023-02-19T02:46:42;98400.09;;;8.90;100.00
14273;BME280;7220;49.450;11.052;2023-02-19T02:50:52;98393.47;;;8.79;100.00
14273;BME280;7220;49.450;11.052;2023-02-19T02:54:55;98383.34;;;8.89;100.00
14273;BME280;7220;49.450;11.052;2023-02-19T02:59:06;98383.41;;;8.88;100.00
14273;BME280;7220;49.450;11.052;2023-02-19T03:03:08;98367.94;;;8.97;100.00
14273;BME280;7220;49.450;11.052;2023-02-19T03:07:09;98366.59;;;9.08;100.00
14273;BME280;7220;49.450;11.052;2023-02-19T03:11:10;98369.25;;;9.08;100.00
14273;BME280;7220;49.450;11.052;2023-02-19T03:15:35;98355.88;;;9.11;100.00
14273;BME280;7220;49.450;11.052;2023-02-19T03:20:05;98361.00;;;8.95;100.00
14273;BME280;7220;49.450;11.052;2023-02-19T03:24:09;98359.50;;;8.89;100.00
14273;BME280;7220;49.450;11.052;2023-02-19T03:28:47;98363.72;;;8.93;100.00
14273;BME280;7220;49.450;11.052;2023-02-19T03:33:14;98368.34;;;9.09;100.00
14273;BME280;7220;49.450;11.052;2023-02-19T03:37:21;98366.88;;;9.02;100.00
14273;BME280;7220;49.450;11.052;2023-02-19T03:41:34;98361.34;;;8.87;100.00
14273;BME280;7220;49.450;11.052;2023-02-19T03:45:52;98383.94;;;8.96;100.00
14273;BME280;7220;49.450;11.052;2023-02-19T03:54:51;98350.91;;;9.03;100.00
14273;BME280;7220;49.450;11.052;2023-02-19T03:58:56;98353.56;;;9.03;100.00
14273;BME280;7220;49.450;11.052;2023-02-19T04:03:23;98340.09;;;9.08;100.00
14273;BME280;7220;49.450;11.052;2023-02-19T04:07:27;98359.59;;;9.07;100.00
14273;BME280;7220;49.450;11.052;2023-02-19T04:11:30;98357.59;;;9.12;100.00
14273;BME280;7220;49.450;11.052;2023-02-19T04:15:33;98359.38;;;9.11;100.00
14273;BME280;7220;49.450;11.052;2023-02-19T04:19:36;98362.00;;;8.92;100.00
14273;BME280;7220;49.450;11.052;2023-02-19T04:23:40;98378.66;;;9.15;100.00
14273;BME280;7220;49.450;11.052;2023-02-19T04:27:43;98368.22;;;9.31;100.00
14273;BME280;7220;49.450;11.052;2023-02-19T04:31:43;98367.28;;;8.92;100.00
14273;BME280;7220;49.450;11.052;2023-02-19T04:35:44;98364.38;;;8.98;100.00
14273;BME280;7220;49.450;11.052;2023-02-19T04:39:44;98365.81;;;9.06;100.00
14273;BME280;7220;49.450;11.052;2023-02-19T04:43:44;98364.63;;;9.13;100.00
14273;BME280;7220;49.450;11.052;2023-02-19T04:47:45;98364.06;;;9.25;100.00
14273;BME280;7220;49.450;11.052;2023-02-19T04:51:45;98375.38;;;9.10;100.00
14273;BME280;7220;49.450;11.052;2023-02-19T04:55:45;98387.84;;;9.27;100.00
14273;BME280;7220;49.450;11.052;2023-02-19T04:59:47;98409.63;;;9.14;100.00
14273;BME280;7220;49.450;11.052;2023-02-19T05:03:47;98393.03;;;9.09;100.00
14273;BME280;7220;49.450;11.052;2023-02-19T05:07:47;98373.34;;;9.15;100.00
14273;BME280;7220;49.450;11.052;2023-02-19T05:11:48;98387.81;;;9.08;100.00
14273;BME280;7220;49.450;11.052;2023-02-19T05:15:56;98377.22;;;9.08;100.00
14273;BME280;7220;49.450;11.052;2023-02-19T05:19:57;98364.75;;;9.10;100.00
14273;BME280;7220;49.450;11.052;2023-02-19T05:23:57;98377.31;;;9.25;100.00
14273;BME280;7220;49.450;11.052;2023-02-19T05:27:57;98360.91;;;9.17;100.00
14273;BME280;7220;49.450;11.052;2023-02-19T05:32:16;98363.66;;;9.35;100.00
14273;BME280;7220;49.450;11.052;2023-02-19T05:36:18;98375.81;;;9.39;100.00
14273;BME280;7220;49.450;11.052;2023-02-19T05:40:18;98364.34;;;9.19;100.00
14273;BME280;7220;49.450;11.052;2023-02-19T05:44:19;98361.31;;;9.27;100.00
14273;BME280;7220;49.450;11.052;2023-02-19T05:48:19;98373.66;;;9.47;100.00
14273;BME280;7220;49.450;11.052;2023-02-19T05:52:19;98376.41;;;9.45;100.00
14273;BME280;7220;49.450;11.052;2023-02-19T05:56:34;98385.56;;;9.19;100.00
14273;BME280;7220;49.450;11.052;2023-02-19T06:00:35;98384.16;;;9.50;100.00
14273;BME280;7220;49.450;11.052;2023-02-19T06:04:37;98393.19;;;9.65;100.00
14273;BME280;7220;49.450;11.052;2023-02-19T06:08:37;98403.38;;;9.55;100.00
14273;BME280;7220;49.450;11.052;2023-02-19T06:12:37;98408.97;;;9.49;100.00
14273;BME280;7220;49.450;11.052;2023-02-19T06:16:38;98420.19;;;9.35;100.00
14273;BME280;7220;49.450;11.052;2023-02-19T06:20:38;98412.50;;;9.29;100.00
14273;BME280;7220;49.450;11.052;2023-02-19T06:24:38;98403.72;;;9.28;100.00
14273;BME280;7220;49.450;11.052;2023-02-19T06:28:39;98409.03;;;9.08;100.00
14273;BME280;7220;49.450;11.052;2023-02-19T06:32:40;98416.97;;;9.28;100.00
14273;BME280;7220;49.450;11.052;2023-02-19T06:36:40;98434.56;;;9.29;100.00
14273;BME280;7220;49.450;11.052;2023-02-19T06:40:41;98425.44;;;9.37;100.00
14273;BME280;7220;49.450;11.052;2023-02-19T06:44:41;98443.00;;;9.39;100.00
14273;BME280;7220;49.450;11.052;2023-02-19T06:48:43;98441.19;;;9.60;100.00
14273;BME280;7220;49.450;11.052;2023-02-19T06:52:44;98453.63;;;9.19;100.00
14273;BME280;7220;49.450;11.052;2023-02-19T06:56:44;98448.06;;;9.25;100.00
14273;BME280;7220;49.450;11.052;2023-02-19T07:00:44;98457.00;;;9.43;100.00
14273;BME280;7220;49.450;11.052;2023-02-19T07:04:44;98474.31;;;9.31;100.00
14273;BME280;7220;49.450;11.052;2023-02-19T07:08:45;98462.44;;;9.59;100.00
14273;BME280;7220;49.450;11.052;2023-02-19T07:12:45;98460.50;;;9.43;100.00
14273;BME280;7220;49.450;11.052;2023-02-19T07:16:46;98481.16;;;9.37;100.00
14273;BME280;7220;49.450;11.052;2023-02-19T07:20:47;98473.97;;;9.39;100.00
14273;BME280;7220;49.450;11.052;2023-02-19T07:24:47;98482.19;;;9.32;100.00
14273;BME280;7220;49.450;11.052;2023-02-19T07:28:49;98477.69;;;9.35;100.00
14273;BME280;7220;49.450;11.052;2023-02-19T07:32:49;98479.53;;;9.32;100.00
14273;BME280;7220;49.450;11.052;2023-02-19T07:36:49;98484.53;;;9.40;100.00
14273;BME280;7220;49.450;11.052;2023-02-19T07:40:58;98494.66;;;9.51;100.00
14273;BME280;7220;49.450;11.052;2023-02-19T07:44:58;98506.47;;;9.44;100.00
14273;BME280;7220;49.450;11.052;2023-02-19T07:48:59;98493.25;;;9.63;100.00
14273;BME280;7220;49.450;11.052;2023-02-19T07:52:59;98483.94;;;9.73;100.00
14273;BME280;7220;49.450;11.052;2023-02-19T07:56:59;98490.19;;;9.91;100.00
14273;BME280;7220;49.450;11.052;2023-02-19T08:05:11;98500.41;;;9.80;100.00
14273;BME280;7220;49.450;11.052;2023-02-19T08:09:12;98523.31;;;9.83;100.00
14273;BME280;7220;49.450;11.052;2023-02-19T08:13:14;98503.22;;;9.77;100.00
14273;BME280;7220;49.450;11.052;2023-02-19T08:17:27;98515.44;;;10.00;100.00
14273;BME280;7220;49.450;11.052;2023-02-19T08:21:29;98505.94;;;9.94;100.00
14273;BME280;7220;49.450;11.052;2023-02-19T08:25:29;98513.78;;;9.98;100.00
14273;BME280;7220;49.450;11.052;2023-02-19T08:29:29;98530.78;;;9.93;100.00
14273;BME280;7220;49.450;11.052;2023-02-19T08:33:30;98535.72;;;9.82;99.88
14273;BME280;7220;49.450;11.052;2023-02-19T08:37:30;98554.19;;;10.04;98.29
14273;BME280;7220;49.450;11.052;2023-02-19T08:41:30;98566.16;;;9.94;96.89
14273;BME280;7220;49.450;11.052;2023-02-19T08:45:31;98552.06;;;10.13;96.24
14273;BME280;7220;49.450;11.052;2023-02-19T08:49:31;98547.16;;;10.22;96.80
14273;BME280;7220;49.450;11.052;2023-02-19T08:53:32;98576.28;;;10.05;97.01
14273;BME280;7220;49.450;11.052;2023-02-19T08:57:36;98574.00;;;9.97;97.50
14273;BME280;7220;49.450;11.052;2023-02-19T09:01:39;98585.25;;;10.02;97.95
14273;BME280;7220;49.450;11.052;2023-02-19T09:05:39;98574.22;;;9.92;98.82
14273;BME280;7220;49.450;11.052;2023-02-19T09:09:40;98589.28;;;10.11;98.01
14273;BME280;7220;49.450;11.052;2023-02-19T09:13:41;98584.78;;;10.13;97.27
14273;BME280;7220;49.450;11.052;2023-02-19T09:17:41;98584.91;;;10.10;96.86
14273;BME280;7220;49.450;11.052;2023-02-19T09:21:42;98611.31;;;9.94;98.31
14273;BME280;7220;49.450;11.052;2023-02-19T09:25:42;98595.69;;;10.07;97.92
14273;BME280;7220;49.450;11.052;2023-02-19T09:29:42;98606.72;;;9.98;98.22
14273;BME280;7220;49.450;11.052;2023-02-19T09:33:47;98624.09;;;10.05;98.59
14273;BME280;7220;49.450;11.052;2023-02-19T09:37:47;98618.91;;;10.02;98.79
14273;BME280;7220;49.450;11.052;2023-02-19T09:41:57;98607.22;;;10.06;99.41
14273;BME280;7220;49.450;11.052;2023-02-19T09:46:21;98614.41;;;10.04;99.24
14273;BME280;7220;49.450;11.052;2023-02-19T09:50:29;98627.84;;;10.20;99.45
14273;BME280;7220;49.450;11.052;2023-02-19T09:54:33;98621.03;;;10.14;98.51
14273;BME280;7220;49.450;11.052;2023-02-19T09:58:45;98645.38;;;9.84;100.00
14273;BME280;7220;49.450;11.052;2023-02-19T10:02:51;98619.53;;;9.88;100.00
14273;BME280;7220;49.450;11.052;2023-02-19T10:06:52;98623.66;;;9.95;100.00
14273;BME280;7220;49.450;11.052;2023-02-19T10:10:52;98630.94;;;9.90;100.00
14273;BME280;7220;49.450;11.052;2023-02-19T10:15:00;98625.06;;;9.83;100.00
14273;BME280;7220;49.450;11.052;2023-02-19T10:19:08;98626.22;;;9.97;100.00
14273;BME280;7220;49.450;11.052;2023-02-19T10:23:10;98636.03;;;10.15;99.62
14273;BME280;7220;49.450;11.052;2023-02-19T10:27:13;98629.13;;;10.11;98.16
14273;BME280;7220;49.450;11.052;2023-02-19T10:31:19;98649.13;;;9.99;97.85
14273;BME280;7220;49.450;11.052;2023-02-19T10:35:20;98656.41;;;10.15;97.29
14273;BME280;7220;49.450;11.052;2023-02-19T10:43:24;98632.59;;;10.53;94.43
14273;BME280;7220;49.450;11.052;2023-02-19T10:47:30;98663.75;;;10.49;93.48
14273;BME280;7220;49.450;11.052;2023-02-19T10:51:37;98651.81;;;10.39;94.21
14273;BME280;7220;49.450;11.052;2023-02-19T10:55:38;98675.03;;;10.34;94.94
14273;BME280;7220;49.450;11.052;2023-02-19T11:04:16;98674.66;;;10.43;94.76
14273;BME280;7220;49.450;11.052;2023-02-19T11:08:21;98661.44;;;10.41;95.67
14273;BME280;7220;49.450;11.052;2023-02-19T11:12:25;98674.13;;;10.14;97.03
14273;BME280;7220;49.450;11.052;2023-02-19T11:16:47;98682.84;;;10.18;99.18
14273;BME280;7220;49.450;11.052;2023-02-19T11:20:59;98682.38;;;10.08;100.00
14273;BME280;7220;49.450;11.052;2023-02-19T11:25:05;98689.22;;;9.93;100.00
14273;BME280;7220;49.450;11.052;2023-02-19T11:29:20;98696.13;;;9.97;100.00
14273;BME280;7220;49.450;11.052;2023-02-19T11:33:25;98702.06;;;9.61;100.00
14273;BME280;7220;49.450;11.052;2023-02-19T11:37:29;98713.50;;;9.41;100.00
14273;BME280;7220;49.450;11.052;2023-02-19T11:41:50;98707.34;;;9.18;100.00
14273;BME280;7220;49.450;11.052;2023-02-19T11:54:43;98717.22;;;9.37;100.00
14273;BME280;7220;49.450;11.052;2023-02-19T11:59:03;98713.22;;;9.69;100.00
14273;BME280;7220;49.450;11.052;2023-02-19T12:03:22;98718.75;;;9.85;100.00
14273;BME280;7220;49.450;11.052;2023-02-19T12:07:57;98708.19;;;9.84;100.00
14273;BME280;7220;49.450;11.052;2023-02-19T12:16:19;98727.72;;;10.03;100.00
14273;BME280;7220;49.450;11.052;2023-02-19T12:20:34;98730.53;;;10.21;100.00
14273;BME280;7220;49.450;11.052;2023-02-19T12:29:14;98722.28;;;10.48;100.00
14273;BME280;7220;49.450;11.052;2023-02-19T12:33:34;98732.03;;;10.06;100.00
14273;BME280;7220;49.450;11.052;2023-02-19T12:41:59;98692.47;;;10.20;100.00
14273;BME280;7220;49.450;11.052;2023-02-19T12:46:07;98693.41;;;10.40;100.00
14273;BME280;7220;49.450;11.052;2023-02-19T12:50:24;98687.53;;;10.52;100.00
14273;BME280;7220;49.450;11.052;2023-02-19T12:54:29;98690.69;;;10.99;99.70
14273;BME280;7220;49.450;11.052;2023-02-19T12:58:48;98693.56;;;11.13;96.15
14273;BME280;7220;49.450;11.052;2023-02-19T13:02:55;98691.75;;;11.50;92.28
14273;BME280;7220;49.450;11.052;2023-02-19T13:07:03;98688.00;;;11.55;91.53
14273;BME280;7220;49.450;11.052;2023-02-19T13:11:15;98696.03;;;11.35;93.60
14273;BME280;7220;49.450;11.052;2023-02-19T13:15:31;98709.28;;;11.18;91.52
14273;BME280;7220;49.450;11.052;2023-02-19T13:19:36;98689.31;;;11.09;91.83
14273;BME280;7220;49.450;11.052;2023-02-19T13:23:40;98702.91;;;11.03;93.90
14273;BME280;7220;49.450;11.052;2023-02-19T13:36:28;98720.44;;;10.69;94.54
14273;BME280;7220;49.450;11.052;2023-02-19T13:40:35;98730.75;;;10.96;93.05
14273;BME280;7220;49.450;11.052;2023-02-19T13:44:37;98718.03;;;10.44;95.98
14273;BME280;7220;49.450;11.052;2023-02-19T13:48:40;98706.47;;;10.45;96.33
14273;BME280;7220;49.450;11.052;2023-02-19T13:52:43;98719.00;;;10.62;95.24
14273;BME280;7220;49.450;11.052;2023-02-19T13:56:43;98727.25;;;10.55;96.73
14273;BME280;7220;49.450;11.052;2023-02-19T14:00:49;98731.16;;;10.67;96.21
14273;BME280;7220;49.450;11.052;2023-02-19T14:04:58;98736.06;;;10.56;96.46
14273;BME280;7220;49.450;11.052;2023-02-19T14:08:59;98747.03;;;10.69;93.00
14273;BME280;7220;49.450;11.052;2023-02-19T14:12:59;98745.16;;;10.71;94.11
14273;BME280;7220;49.450;11.052;2023-02-19T14:21:23;98756.50;;;10.55;94.36
14273;BME280;7220;49.450;11.052;2023-02-19T14:29:40;98764.06;;;10.44;94.06
14273;BME280;7220;49.450;11.052;2023-02-19T14:33:52;98755.94;;;10.26;94.52
14273;BME280;7220;49.450;11.052;2023-02-19T14:37:54;98765.81;;;10.23;93.89
14273;BME280;7220;49.450;11.052;2023-02-19T17:34:43;98905.28;;;11.76;100.00
14273;BME280;7220;49.450;11.052;2023-02-19T17:38:43;98911.94;;;11.07;100.00
14273;BME280;7220;49.450;11.052;2023-02-19T17:42:44;98920.44;;;10.53;100.00
14273;BME280;7220;49.450;11.052;2023-02-19T17:46:46;98936.97;;;10.39;100.00
14273;BME280;7220;49.450;11.052;2023-02-19T17:50:47;98944.72;;;10.22;100.00
14273;BME280;7220;49.450;11.052;2023-02-19T17:54:49;98949.50;;;9.90;100.00
14273;BME280;7220;49.450;11.052;2023-02-19T17:58:49;98958.22;;;9.93;100.00
14273;BME280;7220;49.450;11.052;2023-02-19T18:02:50;98972.97;;;9.78;100.00
14273;BME280;7220;49.450;11.052;2023-02-19T18:06:50;98971.50;;;9.70;100.00
14273;BME280;7220;49.450;11.052;2023-02-19T18:10:52;98976.38;;;9.58;100.00
14273;BME280;7220;49.450;11.052;2023-02-19T18:14:53;98977.28;;;9.34;100.00
14273;BME280;7220;49.450;11.052;2023-02-19T18:18:55;98989.03;;;9.26;100.00
14273;BME280;7220;49.450;11.052;2023-02-19T18:22:57;98992.69;;;8.97;100.00
14273;BME280;7220;49.450;11.052;2023-02-19T18:26:57;99006.78;;;8.99;100.00
14273;BME280;7220;49.450;11.052;2023-02-19T18:30:58;98998.97;;;8.94;100.00
14273;BME280;7220;49.450;11.052;2023-02-19T18:34:58;98994.66;;;8.92;100.00
14273;BME280;7220;49.450;11.052;2023-02-19T18:39:01;98996.63;;;8.85;100.00
14273;BME280;7220;49.450;11.052;2023-02-19T18:43:01;99002.69;;;8.89;100.00
14273;BME280;7220;49.450;11.052;2023-02-19T18:47:02;99001.84;;;8.88;100.00
14273;BME280;7220;49.450;11.052;2023-02-19T18:51:03;99018.25;;;8.73;100.00
14273;BME280;7220;49.450;11.052;2023-02-19T18:55:04;99027.75;;;8.78;100.00
14273;BME280;7220;49.450;11.052;2023-02-19T18:59:04;99012.22;;;8.67;100.00
14273;BME280;7220;49.450;11.052;2023-02-19T19:03:04;99006.84;;;8.71;100.00
14273;BME280;7220;49.450;11.052;2023-02-19T19:07:06;99010.63;;;8.62;100.00
14273;BME280;7220;49.450;11.052;2023-02-19T19:11:07;99007.13;;;8.61;100.00
14273;BME280;7220;49.450;11.052;2023-02-19T19:15:08;99016.25;;;8.79;100.00
14273;BME280;7220;49.450;11.052;2023-02-19T19:19:09;99028.53;;;8.82;100.00
14273;BME280;7220;49.450;11.052;2023-02-19T19:23:09;99028.69;;;9.04;100.00
14273;BME280;7220;49.450;11.052;2023-02-19T19:27:09;99029.81;;;8.97;100.00
14273;BME280;7220;49.450;11.052;2023-02-19T19:31:11;99028.31;;;8.61;100.00
14273;BME280;7220;49.450;11.052;2023-02-19T19:35:11;99036.56;;;8.52;100.00
14273;BME280;7220;49.450;11.052;2023-02-19T19:39:13;99030.91;;;8.63;100.00
14273;BME280;7220;49.450;11.052;2023-02-19T19:43:14;99037.34;;;8.56;100.00
14273;BME280;7220;49.450;11.052;2023-02-19T19:47:14;99041.94;;;8.50;100.00
14273;BME280;7220;49.450;11.052;2023-02-19T19:51:15;99047.56;;;8.68;100.00
14273;BME280;7220;49.450;11.052;2023-02-19T19:55:16;99042.91;;;8.75;100.00
14273;BME280;7220;49.450;11.052;2023-02-19T19:59:16;99053.50;;;8.75;100.00
14273;BME280;7220;49.450;11.052;2023-02-19T20:03:18;99054.13;;;8.55;100.00
14273;BME280;7220;49.450;11.052;2023-02-19T20:07:19;99057.00;;;8.48;100.00
14273;BME280;7220;49.450;11.052;2023-02-19T20:11:19;99060.63;;;8.44;100.00
14273;BME280;7220;49.450;11.052;2023-02-19T20:15:21;99057.16;;;8.42;100.00
14273;BME280;7220;49.450;11.052;2023-02-19T20:19:22;99058.13;;;8.40;100.00
14273;BME280;7220;49.450;11.052;2023-02-19T20:23:22;99072.47;;;8.02;100.00
14273;BME280;7220;49.450;11.052;2023-02-19T20:27:23;99063.28;;;8.14;100.00
14273;BME280;7220;49.450;11.052;2023-02-19T20:31:24;99074.50;;;8.23;100.00
14273;BME280;7220;49.450;11.052;2023-02-19T20:35:25;99072.50;;;8.31;100.00
14273;BME280;7220;49.450;11.052;2023-02-19T20:39:27;99064.34;;;8.39;100.00
14273;BME280;7220;49.450;11.052;2023-02-19T20:43:28;99078.72;;;8.30;100.00
14273;BME280;7220;49.450;11.052;2023-02-19T20:47:29;99075.97;;;8.33;100.00
14273;BME280;7220;49.450;11.052;2023-02-19T20:51:29;99084.13;;;8.27;100.00
14273;BME280;7220;49.450;11.052;2023-02-19T20:55:29;99085.34;;;8.15;100.00
14273;BME280;7220;49.450;11.052;2023-02-19T20:59:31;99088.19;;;8.09;100.00
14273;BME280;7220;49.450;11.052;2023-02-19T21:03:34;99079.31;;;8.10;100.00
14273;BME280;7220;49.450;11.052;2023-02-19T21:07:34;99081.16;;;8.06;100.00
14273;BME280;7220;49.450;11.052;2023-02-19T21:11:35;99095.25;;;8.08;100.00
14273;BME280;7220;49.450;11.052;2023-02-19T21:15:35;99081.16;;;8.06;100.00
14273;BME280;7220;49.450;11.052;2023-02-19T21:19:35;99076.31;;;7.92;100.00
14273;BME280;7220;49.450;11.052;2023-02-19T21:23:36;99089.44;;;7.95;100.00
14273;BME280;7220;49.450;11.052;2023-02-19T21:27:36;99089.25;;;8.01;100.00
14273;BME280;7220;49.450;11.052;2023-02-19T21:31:39;99086.88;;;7.92;100.00
14273;BME280;7220;49.450;11.052;2023-02-19T21:35:39;99092.38;;;7.84;100.00
14273;BME280;7220;49.450;11.052;2023-02-19T21:39:40;99092.06;;;7.95;100.00
14273;BME280;7220;49.450;11.052;2023-02-19T21:43:41;99108.97;;;7.91;100.00
14273;BME280;7220;49.450;11.052;2023-02-19T21:47:42;99087.78;;;7.91;100.00
14273;BME280;7220;49.450;11.052;2023-02-19T21:51:43;99082.94;;;7.76;100.00
14273;BME280;7220;49.450;11.052;2023-02-19T21:55:44;99083.25;;;7.63;100.00
14273;BME280;7220;49.450;11.052;2023-02-19T21:59:47;99083.25;;;7.63;100.00
14273;BME280;7220;49.450;11.052;2023-02-19T22:03:48;99090.91;;;7.74;100.00
14273;BME280;7220;49.450;11.052;2023-02-19T22:07:48;99096.81;;;7.84;100.00
14273;BME280;7220;49.450;11.052;2023-02-19T22:11:49;99098.31;;;7.61;100.00
14273;BME280;7220;49.450;11.052;2023-02-19T22:15:49;99093.94;;;7.60;100.00
14273;BME280;7220;49.450;11.052;2023-02-19T22:19:49;99105.22;;;7.67;100.00
14273;BME280;7220;49.450;11.052;2023-02-19T22:23:51;99115.19;;;7.57;100.00
14273;BME280;7220;49.450;11.052;2023-02-19T22:27:52;99121.22;;;7.62;100.00
14273;BME280;7220;49.450;11.052;2023-02-19T22:31:52;99125.41;;;7.69;100.00
14273;BME280;7220;49.450;11.052;2023-02-19T22:35:53;99139.41;;;7.74;100.00
14273;BME280;7220;49.450;11.052;2023-02-19T22:39:53;99126.72;;;7.87;100.00
14273;BME280;7220;49.450;11.052;2023-02-19T22:43:54;99119.69;;;7.86;100.00
14273;BME280;7220;49.450;11.052;2023-02-19T22:47:55;99118.41;;;7.68;100.00
14273;BME280;7220;49.450;11.052;2023-02-19T22:51:57;99134.19;;;7.71;100.00
14273;BME280;7220;49.450;11.052;2023-02-19T22:56:00;99117.75;;;7.93;100.00
14273;BME280;7220;49.450;11.052;2023-02-19T23:00:01;99122.38;;;7.85;100.00
14273;BME280;7220;49.450;11.052;2023-02-19T23:04:02;99125.03;;;7.85;100.00
14273;BME280;7220;49.450;11.052;2023-02-19T23:08:02;99131.00;;;7.92;100.00
14273;BME280;7220;49.450;11.052;2023-02-19T23:12:05;99130.28;;;7.86;100.00
14273;BME280;7220;49.450;11.052;2023-02-19T23:16:06;99135.75;;;7.79;100.00
14273;BME280;7220;49.450;11.052;2023-02-19T23:20:07;99128.72;;;7.78;100.00
14273;BME280;7220;49.450;11.052;2023-02-19T23:24:07;99118.78;;;7.87;100.00
14273;BME280;7220;49.450;11.052;2023-02-19T23:28:08;99111.81;;;7.83;100.00
14273;BME280;7220;49.450;11.052;2023-02-19T23:32:08;99116.06;;;7.89;100.00
14273;BME280;7220;49.450;11.052;2023-02-19T23:36:12;99108.59;;;8.03;100.00
14273;BME280;7220;49.450;11.052;2023-02-19T23:40:13;99098.59;;;8.15;100.00
14273;BME280;7220;49.450;11.052;2023-02-19T23:44:13;99101.50;;;8.05;100.00
14273;BME280;7220;49.450;11.052;2023-02-19T23:48:14;99097.56;;;7.89;100.00
14273;BME280;7220;49.450;11.052;2023-02-19T23:52:14;99105.41;;;7.92;100.00
14273;BME280;7220;49.450;11.052;2023-02-19T23:56:26;99109.56;;;8.01;100.00
